createdAt,value
2018-02-23T00:00:10.789Z,88.46
2018-02-23T00:01:10.704Z,88.56
2018-02-23T00:02:10.685Z,88.18
2018-02-23T00:03:10.609Z,88.93
2018-02-23T00:04:10.567Z,88.46
2018-02-23T00:05:10.514Z,89.12
2018-02-23T00:06:10.479Z,89.03
2018-02-23T00:07:10.440Z,89.31
2018-02-23T00:08:10.377Z,89.03
2018-02-23T00:09:10.336Z,90.16
2018-02-23T00:10:10.284Z,90.54
2018-02-23T00:11:10.231Z,90.45
2018-02-23T00:12:10.207Z,90.73
2018-02-23T00:13:10.132Z,90.73
2018-02-23T00:14:10.095Z,91.20
2018-02-23T00:15:10.051Z,91.11
2018-02-23T00:16:09.997Z,91.01
2018-02-23T00:17:09.981Z,91.11
2018-02-23T00:18:09.893Z,91.11
2018-02-23T00:19:09.860Z,91.67
2018-02-23T00:20:09.800Z,92.05
2018-02-23T00:21:09.762Z,91.86
2018-02-23T00:22:09.713Z,91.82
2018-02-23T00:23:09.689Z,91.67
2018-02-23T00:24:09.611Z,91.67
2018-02-23T00:25:09.566Z,92.33
2018-02-23T00:26:09.541Z,91.72
2018-02-23T00:27:09.474Z,91.53
2018-02-23T00:28:09.475Z,92.10
2018-02-23T00:29:09.380Z,92.19
2018-02-23T00:30:09.324Z,92.19
2018-02-23T00:31:09.281Z,92.66
2018-02-23T00:32:09.228Z,92.66
2018-02-23T00:33:09.210Z,92.85
2018-02-23T00:34:09.137Z,93.04
2018-02-23T00:35:09.094Z,93.32
2018-02-23T00:36:09.041Z,93.32
2018-02-23T00:37:08.990Z,93.42
2018-02-23T00:38:08.982Z,93.61
2018-02-23T00:39:08.903Z,94.08
2018-02-23T00:40:08.856Z,93.89
2018-02-23T00:41:08.808Z,93.80
2018-02-23T00:42:08.750Z,93.32
2018-02-23T00:43:08.710Z,94.18
2018-02-23T00:44:08.689Z,93.70
2018-02-23T00:45:08.615Z,94.08
2018-02-23T00:46:08.572Z,94.93
2018-02-23T00:47:08.520Z,94.65
2018-02-23T00:48:08.470Z,94.65
2018-02-23T00:49:08.443Z,95.68
2018-02-23T00:50:08.376Z,95.21
2018-02-23T00:51:08.321Z,96.15
2018-02-23T00:52:08.273Z,96.15
2018-02-23T00:53:08.232Z,95.59
2018-02-23T00:54:08.212Z,95.50
2018-02-23T00:55:08.132Z,95.31
2018-02-23T00:56:08.085Z,95.21
2018-02-23T00:57:08.038Z,95.59
2018-02-23T00:58:07.988Z,95.03
2018-02-23T00:59:07.969Z,95.68
2018-02-23T01:00:07.890Z,95.78
2018-02-23T01:01:07.849Z,95.78
2018-02-23T01:02:07.792Z,95.78
2018-02-23T01:03:07.754Z,96.15
2018-02-23T01:04:07.720Z,96.53
2018-02-23T01:05:07.658Z,96.91
2018-02-23T01:06:07.612Z,96.72
2018-02-23T01:07:07.560Z,96.25
2018-02-23T01:08:07.518Z,96.25
2018-02-23T01:09:07.499Z,96.44
2018-02-23T01:10:07.416Z,96.34
2018-02-23T01:11:07.367Z,95.78
2018-02-23T01:12:07.326Z,96.25
2018-02-23T01:13:07.267Z,96.34
2018-02-23T01:14:07.221Z,95.31
2018-02-23T01:15:07.199Z,96.15
2018-02-23T01:16:07.187Z,96.34
2018-02-23T01:17:07.083Z,96.25
2018-02-23T01:18:07.036Z,96.72
2018-02-23T01:19:06.987Z,96.53
2018-02-23T01:20:06.957Z,96.53
2018-02-23T01:21:06.886Z,97.10
2018-02-23T01:22:06.838Z,96.72
2018-02-23T01:23:06.796Z,96.44
2018-02-23T01:24:06.749Z,96.91
2018-02-23T01:25:06.722Z,97.10
2018-02-23T01:26:06.645Z,96.44
2018-02-23T01:27:06.601Z,97.10
2018-02-23T01:28:06.556Z,97.10
2018-02-23T01:29:06.500Z,97.10
2018-02-23T01:30:06.467Z,97.10
2018-02-23T01:31:06.424Z,96.53
2018-02-23T01:32:06.361Z,96.72
2018-02-23T01:33:06.316Z,97.10
2018-02-23T01:34:06.269Z,97.29
2018-02-23T01:35:06.210Z,97.19
2018-02-23T01:36:06.188Z,97.29
2018-02-23T01:37:06.123Z,97.10
2018-02-23T01:38:06.074Z,97.10
2018-02-23T01:39:06.034Z,96.81
2018-02-23T01:40:05.970Z,96.81
2018-02-23T01:41:05.944Z,97.00
2018-02-23T01:42:05.874Z,97.67
2018-02-23T01:43:05.832Z,98.33
2018-02-23T01:44:05.797Z,98.61
2018-02-23T01:45:05.739Z,98.99
2018-02-23T01:46:05.712Z,99.37
2018-02-23T01:47:05.642Z,99.37
2018-02-23T01:48:05.601Z,98.71
2018-02-23T01:49:05.544Z,98.71
2018-02-23T01:50:05.490Z,98.99
2018-02-23T01:51:05.480Z,98.33
2018-02-23T01:52:05.391Z,98.90
2018-02-23T01:53:05.343Z,98.71
2018-02-23T01:54:05.301Z,99.27
2018-02-23T01:55:05.250Z,99.55
2018-02-23T01:56:05.201Z,99.65
2018-02-23T01:57:05.185Z,99.74
2018-02-23T01:58:05.113Z,99.37
2018-02-23T01:59:05.062Z,99.37
2018-02-23T02:00:05.008Z,99.37
2018-02-23T02:01:04.968Z,99.84
2018-02-23T02:02:04.938Z,99.99
2018-02-23T02:03:04.871Z,99.27
2018-02-23T02:04:04.818Z,99.99
2018-02-23T02:05:04.773Z,99.65
2018-02-23T02:06:04.724Z,99.27
2018-02-23T02:07:04.705Z,99.55
2018-02-23T02:08:04.623Z,99.46
2018-02-23T02:09:04.581Z,99.18
2018-02-23T02:10:04.535Z,98.99
2018-02-23T02:11:04.487Z,98.99
2018-02-23T02:12:04.462Z,98.80
2018-02-23T02:13:04.390Z,98.71
2018-02-23T02:14:04.335Z,98.90
2018-02-23T02:15:04.290Z,98.90
2018-02-23T02:16:04.240Z,98.80
2018-02-23T02:17:04.217Z,98.42
2018-02-23T02:18:04.153Z,98.61
2018-02-23T02:19:04.095Z,99.18
2018-02-23T02:20:04.053Z,98.71
2018-02-23T02:21:04.002Z,98.80
2018-02-23T02:22:03.959Z,98.99
2018-02-23T02:23:03.926Z,98.99
2018-02-23T02:24:03.855Z,98.71
2018-02-23T02:25:03.811Z,98.42
2018-02-23T02:26:05.479Z,98.42
2018-02-23T02:27:03.709Z,98.52
2018-02-23T02:28:03.688Z,97.85
2018-02-23T02:29:03.611Z,98.04
2018-02-23T02:30:03.571Z,98.61
2018-02-23T02:31:03.527Z,98.14
2018-02-23T02:32:03.476Z,99.08
2018-02-23T02:33:03.458Z,98.90
2018-02-23T02:34:03.374Z,98.52
2018-02-23T02:35:03.324Z,98.99
2018-02-23T02:36:03.287Z,99.08
2018-02-23T02:37:03.226Z,98.71
2018-02-23T02:38:03.210Z,98.23
2018-02-23T02:39:03.146Z,98.33
2018-02-23T02:40:03.092Z,98.14
2018-02-23T02:41:03.057Z,98.14
2018-02-23T02:42:03.016Z,98.04
2018-02-23T02:43:03.005Z,98.42
2018-02-23T02:44:02.899Z,97.85
2018-02-23T02:45:02.849Z,98.23
2018-02-23T02:46:02.798Z,98.52
2018-02-23T02:47:02.749Z,97.76
2018-02-23T02:48:02.730Z,97.67
2018-02-23T02:49:02.649Z,97.19
2018-02-23T02:50:02.615Z,96.72
2018-02-23T02:51:02.561Z,97.15
2018-02-23T02:52:02.525Z,96.49
2018-02-23T02:53:02.464Z,96.01
2018-02-23T02:54:02.434Z,95.92
2018-02-23T02:55:02.362Z,95.68
2018-02-23T02:56:02.312Z,96.20
2018-02-23T02:57:02.266Z,96.11
2018-02-23T02:58:02.247Z,96.20
2018-02-23T02:59:02.174Z,96.01
2018-02-23T03:00:02.132Z,95.73
2018-02-23T03:01:02.078Z,96.20
2018-02-23T03:02:02.031Z,96.01
2018-02-23T03:03:01.989Z,95.83
2018-02-23T03:04:01.960Z,95.83
2018-02-23T03:05:01.889Z,95.45
2018-02-23T03:06:01.837Z,95.73
2018-02-23T03:07:01.787Z,95.40
2018-02-23T03:08:01.744Z,95.83
2018-02-23T03:09:01.722Z,95.97
2018-02-23T03:10:01.639Z,95.40
2018-02-23T03:11:01.592Z,96.01
2018-02-23T03:12:01.551Z,95.64
2018-02-23T03:13:01.501Z,95.64
2018-02-23T03:14:01.476Z,95.45
2018-02-23T03:15:01.402Z,96.53
2018-02-23T03:16:01.356Z,96.34
2018-02-23T03:17:01.302Z,96.53
2018-02-23T03:18:01.268Z,95.87
2018-02-23T03:19:01.314Z,95.87
2018-02-23T03:20:01.164Z,95.97
2018-02-23T03:21:01.120Z,96.34
2018-02-23T03:22:01.071Z,96.81
2018-02-23T03:23:01.020Z,96.53
2018-02-23T03:24:00.999Z,96.81
2018-02-23T03:25:00.925Z,97.00
2018-02-23T03:26:00.871Z,97.19
2018-02-23T03:27:00.824Z,96.81
2018-02-23T03:28:00.777Z,97.19
2018-02-23T03:29:00.759Z,97.00
2018-02-23T03:30:00.690Z,97.10
2018-02-23T03:31:00.637Z,97.48
2018-02-23T03:32:00.590Z,97.15
2018-02-23T03:33:00.537Z,96.91
2018-02-23T03:34:00.495Z,96.96
2018-02-23T03:35:00.461Z,96.77
2018-02-23T03:36:00.400Z,96.20
2018-02-23T03:37:00.352Z,96.01
2018-02-23T03:38:00.295Z,95.73
2018-02-23T03:39:00.260Z,96.30
2018-02-23T03:40:00.229Z,95.45
2018-02-23T03:41:00.152Z,96.11
2018-02-23T03:42:00.102Z,95.45
2018-02-23T03:43:00.064Z,96.01
2018-02-23T03:44:00.021Z,95.64
2018-02-23T03:44:59.983Z,95.54
2018-02-23T03:45:59.910Z,95.45
2018-02-23T03:46:59.864Z,95.17
2018-02-23T03:47:59.824Z,94.89
2018-02-23T03:48:59.780Z,95.36
2018-02-23T03:49:59.757Z,95.64
2018-02-23T03:50:59.683Z,95.36
2018-02-23T03:51:59.623Z,95.92
2018-02-23T03:52:59.569Z,94.79
2018-02-23T03:53:59.537Z,95.17
2018-02-23T03:54:59.479Z,95.92
2018-02-23T03:55:59.457Z,95.92
2018-02-23T03:56:59.385Z,95.78
2018-02-23T03:57:59.345Z,95.73
2018-02-23T03:58:59.286Z,95.50
2018-02-23T03:59:59.249Z,95.97
2018-02-23T04:00:59.222Z,96.15
2018-02-23T04:01:59.151Z,95.78
2018-02-23T04:02:59.108Z,95.87
2018-02-23T04:03:59.055Z,96.06
2018-02-23T04:04:59.005Z,95.68
2018-02-23T04:05:58.981Z,95.97
2018-02-23T04:06:58.901Z,95.40
2018-02-23T04:07:58.857Z,96.25
2018-02-23T04:08:58.811Z,96.63
2018-02-23T04:09:58.763Z,97.10
2018-02-23T04:10:58.739Z,97.38
2018-02-23T04:11:58.671Z,97.00
2018-02-23T04:12:58.616Z,97.85
2018-02-23T04:13:58.572Z,98.04
2018-02-23T04:14:58.525Z,97.57
2018-02-23T04:15:58.505Z,97.76
2018-02-23T04:16:58.432Z,98.04
2018-02-23T04:17:58.380Z,97.95
2018-02-23T04:18:58.331Z,99.08
2018-02-23T04:19:58.282Z,99.27
2018-02-23T04:20:58.257Z,98.61
2018-02-23T04:21:58.182Z,98.71
2018-02-23T04:22:58.131Z,98.52
2018-02-23T04:23:58.092Z,98.52
2018-02-23T04:24:58.044Z,99.08
2018-02-23T04:25:57.990Z,98.80
2018-02-23T04:26:57.971Z,98.90
2018-02-23T04:27:57.897Z,98.90
2018-02-23T04:28:57.848Z,98.71
2018-02-23T04:29:57.793Z,98.90
2018-02-23T04:30:57.755Z,99.27
2018-02-23T04:31:57.724Z,99.46
2018-02-23T04:32:57.656Z,99.99
2018-02-23T04:33:57.612Z,99.03
2018-02-23T04:34:57.563Z,99.93
2018-02-23T04:35:57.512Z,99.79
2018-02-23T04:36:57.494Z,99.99
2018-02-23T04:37:57.407Z,99.99
2018-02-23T04:38:57.372Z,99.99
2018-02-23T04:39:57.311Z,99.99
2018-02-23T04:40:57.264Z,99.99
2018-02-23T04:41:57.250Z,99.99
2018-02-23T04:42:57.172Z,99.99
2018-02-23T04:43:57.125Z,99.99
2018-02-23T04:44:57.072Z,99.99
2018-02-23T04:45:57.029Z,99.99
2018-02-23T04:46:56.976Z,99.99
2018-02-23T04:47:56.951Z,99.98
2018-02-23T04:48:56.885Z,99.99
2018-02-23T04:49:56.835Z,99.99
2018-02-23T04:50:56.784Z,99.99
2018-02-23T04:51:56.735Z,99.99
2018-02-23T04:52:56.726Z,99.99
2018-02-23T04:53:56.641Z,99.99
2018-02-23T04:54:56.580Z,99.99
2018-02-23T04:55:56.540Z,99.99
2018-02-23T04:56:56.487Z,99.99
2018-02-23T04:57:56.463Z,99.99
2018-02-23T04:58:56.432Z,99.99
2018-02-23T04:59:56.353Z,99.99
2018-02-23T05:00:56.301Z,99.99
2018-02-23T05:01:56.247Z,99.99
2018-02-23T05:02:56.226Z,99.99
2018-02-23T05:03:56.145Z,99.99
2018-02-23T05:04:56.098Z,99.99
2018-02-23T05:05:56.048Z,99.99
2018-02-23T05:06:56.009Z,99.99
2018-02-23T05:07:55.978Z,99.99
2018-02-23T05:08:55.910Z,99.99
2018-02-23T05:09:55.858Z,99.99
2018-02-23T05:10:55.818Z,99.99
2018-02-23T05:11:55.760Z,99.99
2018-02-23T05:12:55.719Z,99.99
2018-02-23T05:13:55.680Z,99.99
2018-02-23T05:14:55.620Z,99.99
2018-02-23T05:15:55.571Z,99.99
2018-02-23T05:16:55.511Z,99.99
2018-02-23T05:17:55.466Z,99.99
2018-02-23T05:18:55.449Z,99.99
2018-02-23T05:19:55.375Z,99.99
2018-02-23T05:20:55.317Z,99.99
2018-02-23T05:21:55.281Z,99.99
2018-02-23T05:22:55.229Z,99.99
2018-02-23T05:23:55.196Z,99.99
2018-02-23T05:24:55.121Z,99.99
2018-02-23T05:25:55.076Z,99.99
2018-02-23T05:26:55.027Z,99.99
2018-02-23T05:27:54.983Z,99.99
2018-02-23T05:28:54.964Z,99.99
2018-02-23T05:29:54.889Z,99.99
2018-02-23T05:30:54.834Z,99.99
2018-02-23T05:31:54.790Z,99.99
2018-02-23T05:32:54.741Z,99.99
2018-02-23T05:33:54.691Z,99.99
2018-02-23T05:34:54.671Z,99.99
2018-02-23T05:35:54.589Z,99.99
2018-02-23T05:36:54.540Z,99.99
2018-02-23T05:37:54.489Z,99.99
2018-02-23T05:38:54.454Z,99.99
2018-02-23T05:39:54.431Z,99.99
2018-02-23T05:40:54.339Z,99.99
2018-02-23T05:41:54.301Z,99.99
2018-02-23T05:42:54.251Z,99.99
2018-02-23T05:43:54.205Z,99.99
2018-02-23T05:44:54.180Z,99.99
2018-02-23T05:45:54.104Z,99.93
2018-02-23T05:46:54.053Z,99.46
2018-02-23T05:47:54.007Z,99.55
2018-02-23T05:48:53.952Z,99.37
2018-02-23T05:49:53.933Z,99.46
2018-02-23T05:50:53.858Z,98.90
2018-02-23T05:51:53.817Z,99.65
2018-02-23T05:52:53.763Z,99.46
2018-02-23T05:53:53.721Z,99.98
2018-02-23T05:54:53.698Z,99.22
2018-02-23T05:55:53.618Z,99.69
2018-02-23T05:56:53.569Z,99.32
2018-02-23T05:57:53.518Z,99.79
2018-02-23T05:58:53.464Z,99.41
2018-02-23T05:59:53.422Z,99.41
2018-02-23T06:00:53.390Z,99.41
2018-02-23T06:01:53.321Z,99.88
2018-02-23T06:02:53.279Z,99.22
2018-02-23T06:03:53.231Z,99.93
2018-02-23T06:04:53.191Z,99.46
2018-02-23T06:05:53.154Z,98.52
2018-02-23T06:06:53.110Z,98.99
2018-02-23T06:07:53.025Z,98.23
2018-02-23T06:08:52.981Z,98.04
2018-02-23T06:09:52.937Z,97.19
2018-02-23T06:10:52.910Z,96.81
2018-02-23T06:11:52.834Z,96.63
2018-02-23T06:12:52.794Z,96.91
2018-02-23T06:13:52.745Z,96.44
2018-02-23T06:14:52.687Z,95.40
2018-02-23T06:15:52.672Z,95.21
2018-02-23T06:16:52.599Z,95.50
2018-02-23T06:17:52.551Z,94.55
2018-02-23T06:18:52.502Z,94.46
2018-02-23T06:19:52.447Z,94.65
2018-02-23T06:20:52.396Z,94.36
2018-02-23T06:21:52.375Z,94.36
2018-02-23T06:22:52.299Z,94.27
2018-02-23T06:23:52.259Z,93.80
2018-02-23T06:24:52.206Z,93.13
2018-02-23T06:25:52.179Z,93.32
2018-02-23T06:26:52.129Z,93.42
2018-02-23T06:27:52.061Z,93.18
2018-02-23T06:28:53.982Z,92.24
2018-02-23T06:29:51.967Z,91.96
2018-02-23T06:30:51.913Z,92.05
2018-02-23T06:31:51.892Z,91.58
2018-02-23T06:32:51.817Z,92.05
2018-02-23T06:33:51.766Z,92.76
2018-02-23T06:34:51.718Z,92.19
2018-02-23T06:35:51.680Z,92.14
2018-02-23T06:36:51.653Z,92.61
2018-02-23T06:37:51.579Z,92.29
2018-02-23T06:38:51.532Z,92.47
2018-02-23T06:39:51.482Z,92.66
2018-02-23T06:40:51.426Z,91.67
2018-02-23T06:41:51.404Z,91.77
2018-02-23T06:42:51.338Z,91.49
2018-02-23T06:43:51.293Z,91.11
2018-02-23T06:44:51.233Z,90.64
2018-02-23T06:45:51.183Z,90.35
2018-02-23T06:46:51.144Z,90.45
2018-02-23T06:47:51.117Z,90.45
2018-02-23T06:48:51.044Z,90.07
2018-02-23T06:49:50.999Z,89.22
2018-02-23T06:50:50.943Z,89.50
2018-02-23T06:51:50.901Z,93.51
2018-02-23T06:52:50.888Z,90.68
2018-02-23T06:53:50.814Z,87.37
2018-02-23T06:54:50.754Z,87.23
2018-02-23T06:55:50.705Z,85.34
2018-02-23T06:56:50.686Z,84.30
2018-02-23T06:57:50.649Z,83.64
2018-02-23T06:58:50.572Z,82.41
2018-02-23T06:59:50.513Z,81.65
2018-02-23T07:00:50.583Z,80.52
2018-02-23T07:01:50.445Z,80.71
2018-02-23T07:02:50.433Z,80.80
2018-02-23T07:03:50.332Z,80.46
2018-02-23T07:04:50.289Z,79.33
2018-02-23T07:05:50.268Z,79.05
2018-02-23T07:06:50.180Z,77.91
2018-02-23T07:07:50.137Z,76.63
2018-02-23T07:08:50.108Z,74.74
2018-02-23T07:09:50.049Z,74.55
2018-02-23T07:10:50.043Z,74.45
2018-02-23T07:11:49.959Z,73.03
2018-02-23T07:12:49.897Z,74.17
2018-02-23T07:13:49.883Z,73.79
2018-02-23T07:14:49.815Z,73.16
2018-02-23T07:15:49.766Z,71.74
2018-02-23T07:16:49.724Z,70.93
2018-02-23T07:17:49.671Z,70.26
2018-02-23T07:18:49.653Z,69.41
2018-02-23T07:19:49.576Z,68.37
2018-02-23T07:20:49.539Z,68.59
2018-02-23T07:21:49.499Z,67.08
2018-02-23T07:22:49.448Z,66.70
2018-02-23T07:23:49.421Z,65.75
2018-02-23T07:24:49.367Z,64.81
2018-02-23T07:25:49.319Z,65.09
2018-02-23T07:26:49.273Z,64.58
2018-02-23T07:27:49.226Z,65.84
2018-02-23T07:28:49.216Z,65.19
2018-02-23T07:29:49.137Z,63.67
2018-02-23T07:30:49.106Z,63.85
2018-02-23T07:31:49.112Z,63.95
2018-02-23T07:32:49.021Z,64.23
2018-02-23T07:33:48.977Z,63.48
2018-02-23T07:34:48.960Z,63.85
2018-02-23T07:35:48.884Z,64.23
2018-02-23T07:36:48.846Z,62.91
2018-02-23T07:37:48.800Z,62.24
2018-02-23T07:38:48.766Z,61.30
2018-02-23T07:39:48.740Z,61.11
2018-02-23T07:40:48.681Z,62.05
2018-02-23T07:41:48.639Z,61.96
2018-02-23T07:42:48.603Z,61.11
2018-02-23T07:43:48.560Z,60.38
2018-02-23T07:44:48.540Z,60.19
2018-02-23T07:45:48.480Z,60.57
2018-02-23T07:46:48.434Z,59.81
2018-02-23T07:47:48.393Z,60.10
2018-02-23T07:48:48.353Z,59.53
2018-02-23T07:49:48.334Z,60.00
2018-02-23T07:50:48.266Z,59.05
2018-02-23T07:51:48.225Z,58.33
2018-02-23T07:52:48.185Z,58.20
2018-02-23T07:53:48.151Z,57.73
2018-02-23T07:54:48.176Z,58.48
2018-02-23T07:55:48.062Z,58.45
2018-02-23T07:56:48.034Z,59.25
2018-02-23T07:57:47.984Z,58.48
2018-02-23T07:58:47.945Z,58.48
2018-02-23T07:59:47.904Z,58.11
2018-02-23T08:00:47.890Z,58.36
2018-02-23T08:01:47.820Z,59.03
2018-02-23T08:02:47.790Z,59.69
2018-02-23T08:03:47.743Z,59.78
2018-02-23T08:04:47.709Z,59.44
2018-02-23T08:05:47.688Z,57.85
2018-02-23T08:06:47.632Z,56.52
2018-02-23T08:07:47.590Z,55.00
2018-02-23T08:08:47.553Z,54.91
2018-02-23T08:09:47.511Z,55.00
2018-02-23T08:10:47.498Z,54.06
2018-02-23T08:11:47.435Z,54.34
2018-02-23T08:12:47.396Z,54.25
2018-02-23T08:13:47.346Z,54.98
2018-02-23T08:14:47.316Z,54.41
2018-02-23T08:15:47.301Z,54.67
2018-02-23T08:16:47.231Z,55.71
2018-02-23T08:17:47.199Z,57.04
2018-02-23T08:18:47.167Z,57.23
2018-02-23T08:19:47.112Z,56.56
2018-02-23T08:20:47.081Z,56.68
2018-02-23T08:21:47.055Z,56.02
2018-02-23T08:22:46.999Z,55.17
2018-02-23T08:23:46.967Z,54.98
2018-02-23T08:24:46.924Z,54.88
2018-02-23T08:25:46.878Z,55.17
2018-02-23T08:26:46.861Z,54.44
2018-02-23T08:27:46.806Z,52.83
2018-02-23T08:28:46.771Z,52.23
2018-02-23T08:29:46.731Z,53.15
2018-02-23T08:30:46.691Z,54.10
2018-02-23T08:31:46.668Z,55.14
2018-02-23T08:32:46.619Z,55.87
2018-02-23T08:33:46.588Z,56.91
2018-02-23T08:34:46.542Z,57.42
2018-02-23T08:35:46.503Z,56.75
2018-02-23T08:36:46.479Z,56.46
2018-02-23T08:37:46.415Z,55.90
2018-02-23T08:38:46.385Z,56.46
2018-02-23T08:39:46.338Z,56.18
2018-02-23T08:40:46.302Z,54.76
2018-02-23T08:41:46.294Z,53.08
2018-02-23T08:42:46.225Z,53.15
2018-02-23T08:43:46.189Z,53.27
2018-02-23T08:44:46.149Z,52.98
2018-02-23T08:45:46.101Z,52.77
2018-02-23T08:46:46.068Z,52.77
2018-02-23T08:47:46.044Z,52.58
2018-02-23T08:48:45.995Z,52.75
2018-02-23T08:49:45.950Z,53.44
2018-02-23T08:50:45.904Z,52.96
2018-02-23T08:51:45.872Z,53.22
2018-02-23T08:52:45.863Z,52.58
2018-02-23T08:53:45.802Z,51.82
2018-02-23T08:54:45.760Z,51.92
2018-02-23T08:55:45.725Z,51.47
2018-02-23T08:56:45.671Z,50.34
2018-02-23T08:57:45.673Z,49.48
2018-02-23T08:58:45.597Z,49.19
2018-02-23T08:59:45.559Z,49.01
2018-02-23T09:00:45.542Z,49.65
2018-02-23T09:01:45.482Z,51.35
2018-02-23T09:02:45.470Z,52.70
2018-02-23T09:03:45.402Z,51.28
2018-02-23T09:04:45.361Z,49.67
2018-02-23T09:05:45.318Z,49.19
2018-02-23T09:06:45.279Z,49.29
2018-02-23T09:07:45.242Z,49.22
2018-02-23T09:08:45.232Z,47.99
2018-02-23T09:09:45.178Z,47.04
2018-02-23T09:10:45.132Z,47.20
2018-02-23T09:11:45.086Z,47.87
2018-02-23T09:12:45.053Z,49.17
2018-02-23T09:13:45.036Z,49.27
2018-02-23T09:14:45.017Z,49.84
2018-02-23T09:15:44.930Z,49.08
2018-02-23T09:16:44.897Z,49.27
2018-02-23T09:17:44.855Z,48.54
2018-02-23T09:18:44.881Z,48.34
2018-02-23T09:19:44.794Z,48.63
2018-02-23T09:20:44.753Z,47.87
2018-02-23T09:21:44.705Z,46.94
2018-02-23T09:22:44.676Z,46.85
2018-02-23T09:23:44.658Z,46.16
2018-02-23T09:24:44.589Z,46.64
2018-02-23T09:25:44.552Z,47.11
2018-02-23T09:26:44.522Z,46.33
2018-02-23T09:27:44.483Z,46.83
2018-02-23T09:28:44.465Z,46.90
2018-02-23T09:29:44.411Z,47.75
2018-02-23T09:30:44.364Z,48.22
2018-02-23T09:31:44.332Z,48.54
2018-02-23T09:32:44.290Z,48.44
2018-02-23T09:33:44.280Z,47.49
2018-02-23T09:34:44.235Z,46.47
2018-02-23T09:35:44.186Z,46.66
2018-02-23T09:36:44.144Z,46.59
2018-02-23T09:37:44.140Z,45.28
2018-02-23T09:38:44.100Z,44.40
2018-02-23T09:39:44.034Z,44.46
2018-02-23T09:40:43.993Z,45.40
2018-02-23T09:41:43.964Z,45.62
2018-02-23T09:42:43.926Z,45.62
2018-02-23T09:43:43.912Z,45.14
2018-02-23T09:44:43.846Z,45.62
2018-02-23T09:45:43.813Z,44.38
2018-02-23T09:46:43.783Z,44.55
2018-02-23T09:47:43.739Z,45.21
2018-02-23T09:48:43.731Z,45.03
2018-02-23T09:49:43.664Z,45.05
2018-02-23T09:50:43.627Z,45.14
2018-02-23T09:51:43.595Z,44.60
2018-02-23T09:52:43.549Z,44.02
2018-02-23T09:53:43.518Z,42.98
2018-02-23T09:54:43.500Z,42.20
2018-02-23T09:55:43.450Z,43.24
2018-02-23T09:56:43.422Z,43.98
2018-02-23T09:57:43.374Z,45.03
2018-02-23T09:58:43.338Z,45.21
2018-02-23T09:59:43.339Z,45.21
2018-02-23T10:00:43.251Z,45.52
2018-02-23T10:01:43.219Z,45.43
2018-02-23T10:02:43.192Z,44.38
2018-02-23T10:03:43.150Z,43.82
2018-02-23T10:04:43.129Z,43.72
2018-02-23T10:05:43.070Z,43.98
2018-02-23T10:06:43.037Z,44.15
2018-02-23T10:07:43.006Z,44.91
2018-02-23T10:08:42.960Z,45.40
2018-02-23T10:09:42.942Z,46.07
2018-02-23T10:10:42.885Z,45.19
2018-02-23T10:11:42.853Z,45.21
2018-02-23T10:12:42.812Z,46.07
2018-02-23T10:13:42.775Z,45.24
2018-02-23T10:14:42.770Z,44.48
2018-02-23T10:15:42.693Z,44.57
2018-02-23T10:16:42.660Z,44.29
2018-02-23T10:17:42.624Z,43.27
2018-02-23T10:18:42.590Z,43.34
2018-02-23T10:19:42.551Z,43.62
2018-02-23T10:20:42.669Z,44.10
2018-02-23T10:21:42.472Z,45.17
2018-02-23T10:22:42.437Z,43.65
2018-02-23T10:23:42.392Z,43.74
2018-02-23T10:24:42.415Z,42.89
2018-02-23T10:25:42.346Z,42.41
2018-02-23T10:26:42.290Z,42.49
2018-02-23T10:27:42.244Z,42.77
2018-02-23T10:28:42.203Z,43.24
2018-02-23T10:29:42.175Z,42.86
2018-02-23T10:30:42.170Z,43.17
2018-02-23T10:31:42.105Z,42.32
2018-02-23T10:32:42.080Z,42.34
2018-02-23T10:33:42.035Z,41.39
2018-02-23T10:34:41.989Z,42.05
2018-02-23T10:35:41.982Z,41.11
2018-02-23T10:36:41.923Z,40.89
2018-02-23T10:37:41.883Z,42.24
2018-02-23T10:38:41.846Z,41.30
2018-02-23T10:39:41.808Z,41.18
2018-02-23T10:40:41.779Z,40.99
2018-02-23T10:41:41.759Z,41.99
2018-02-23T10:42:41.698Z,42.94
2018-02-23T10:43:41.667Z,43.23
2018-02-23T10:44:41.638Z,43.24
2018-02-23T10:45:41.599Z,42.77
2018-02-23T10:46:41.587Z,42.70
2018-02-23T10:47:41.514Z,42.89
2018-02-23T10:48:41.476Z,42.22
2018-02-23T10:49:41.441Z,41.75
2018-02-23T10:50:41.417Z,41.94
2018-02-23T10:51:41.397Z,41.85
2018-02-23T10:52:41.346Z,41.46
2018-02-23T10:53:41.296Z,41.94
2018-02-23T10:54:41.268Z,41.27
2018-02-23T10:55:41.228Z,41.27
2018-02-23T10:56:41.216Z,41.67
2018-02-23T10:57:41.167Z,41.41
2018-02-23T10:58:41.135Z,39.98
2018-02-23T10:59:41.086Z,39.13
2018-02-23T11:00:41.053Z,39.59
2018-02-23T11:01:41.039Z,40.72
2018-02-23T11:02:40.971Z,41.39
2018-02-23T11:03:40.935Z,41.96
2018-02-23T11:04:40.900Z,41.58
2018-02-23T11:05:40.873Z,40.92
2018-02-23T11:06:40.829Z,40.99
2018-02-23T11:07:40.826Z,42.32
2018-02-23T11:08:40.757Z,42.22
2018-02-23T11:09:40.726Z,42.60
2018-02-23T11:10:40.688Z,42.20
2018-02-23T11:11:40.659Z,43.17
2018-02-23T11:12:40.644Z,42.51
2018-02-23T11:13:40.589Z,42.70
2018-02-23T11:14:40.551Z,42.32
2018-02-23T11:15:40.518Z,42.22
2018-02-23T11:16:40.478Z,41.94
2018-02-23T11:17:40.457Z,41.94
2018-02-23T11:18:40.400Z,42.05
2018-02-23T11:19:40.361Z,41.39
2018-02-23T11:20:40.327Z,41.30
2018-02-23T11:21:40.290Z,41.18
2018-02-23T11:22:40.277Z,41.54
2018-02-23T11:23:40.225Z,42.49
2018-02-23T11:24:40.190Z,42.77
2018-02-23T11:25:40.153Z,42.60
2018-02-23T11:26:40.116Z,42.98
2018-02-23T11:27:40.105Z,42.60
2018-02-23T11:28:40.035Z,42.22
2018-02-23T11:29:40.009Z,42.03
2018-02-23T11:30:39.970Z,42.60
2018-02-23T11:31:39.930Z,42.24
2018-02-23T11:32:39.902Z,41.66
2018-02-23T11:33:39.889Z,41.73
2018-02-23T11:34:39.826Z,42.86
2018-02-23T11:35:39.787Z,43.13
2018-02-23T11:36:39.758Z,43.24
2018-02-23T11:37:39.715Z,43.24
2018-02-23T11:38:39.722Z,43.46
2018-02-23T11:39:39.643Z,42.96
2018-02-23T11:40:39.616Z,42.58
2018-02-23T11:41:39.575Z,42.30
2018-02-23T11:42:39.543Z,42.13
2018-02-23T11:43:39.522Z,42.20
2018-02-23T11:44:39.469Z,42.39
2018-02-23T11:45:39.437Z,43.15
2018-02-23T11:46:39.398Z,43.15
2018-02-23T11:47:39.365Z,43.82
2018-02-23T11:48:39.348Z,43.24
2018-02-23T11:49:39.282Z,43.15
2018-02-23T11:50:39.253Z,43.15
2018-02-23T11:51:39.225Z,43.41
2018-02-23T11:52:39.180Z,43.24
2018-02-23T11:53:39.175Z,44.01
2018-02-23T11:54:39.109Z,44.10
2018-02-23T11:55:39.130Z,43.62
2018-02-23T11:56:39.031Z,43.62
2018-02-23T11:57:38.989Z,43.43
2018-02-23T11:58:38.958Z,43.27
2018-02-23T11:59:38.950Z,42.86
2018-02-23T12:00:38.891Z,42.86
2018-02-23T12:01:38.853Z,42.96
2018-02-23T12:02:38.818Z,43.24
2018-02-23T12:03:38.771Z,43.24
2018-02-23T12:04:38.765Z,43.24
2018-02-23T12:05:38.708Z,42.94
2018-02-23T12:06:38.666Z,43.24
2018-02-23T12:07:38.628Z,43.62
2018-02-23T12:08:38.599Z,44.10
2018-02-23T12:09:38.591Z,44.10
2018-02-23T12:10:38.519Z,43.32
2018-02-23T12:11:38.489Z,43.32
2018-02-23T12:12:38.443Z,43.91
2018-02-23T12:13:38.417Z,44.48
2018-02-23T12:14:38.403Z,44.65
2018-02-23T12:15:38.349Z,45.31
2018-02-23T12:16:38.306Z,45.81
2018-02-23T12:17:38.276Z,45.81
2018-02-23T12:18:38.229Z,45.90
2018-02-23T12:19:38.197Z,46.28
2018-02-23T12:20:38.185Z,45.33
2018-02-23T12:21:38.120Z,45.50
2018-02-23T12:22:38.082Z,45.78
2018-02-23T12:23:38.042Z,46.16
2018-02-23T12:24:38.005Z,46.45
2018-02-23T12:25:37.993Z,46.26
2018-02-23T12:26:37.933Z,45.97
2018-02-23T12:27:37.904Z,46.54
2018-02-23T12:28:37.862Z,46.35
2018-02-23T12:29:37.829Z,46.35
2018-02-23T12:30:37.821Z,46.35
2018-02-23T12:31:37.761Z,46.26
2018-02-23T12:32:37.716Z,46.45
2018-02-23T12:33:37.686Z,46.54
2018-02-23T12:34:37.642Z,46.64
2018-02-23T12:35:37.631Z,47.58
2018-02-23T12:36:37.576Z,47.77
2018-02-23T12:37:37.547Z,47.77
2018-02-23T12:38:37.501Z,47.49
2018-02-23T12:39:37.458Z,47.58
2018-02-23T12:40:37.446Z,47.58
2018-02-23T12:41:37.382Z,47.30
2018-02-23T12:42:37.355Z,47.96
2018-02-23T12:43:37.309Z,47.96
2018-02-23T12:44:37.281Z,47.20
2018-02-23T12:45:37.237Z,47.58
2018-02-23T12:46:37.225Z,47.39
2018-02-23T12:47:37.161Z,47.02
2018-02-23T12:48:37.136Z,47.49
2018-02-23T12:49:37.098Z,47.58
2018-02-23T12:50:37.063Z,46.64
2018-02-23T12:51:37.048Z,46.61